sensor_id;sensor_type;location;lat;lon;timestamp;temperature;humidity
14511;DHT22;7341;50.930;4.038;2023-02-03T00:00:11;10.00;99.90
14511;DHT22;7341;50.930;4.038;2023-02-03T00:02:38;10.00;99.90
14511;DHT22;7341;50.930;4.038;2023-02-03T00:05:29;10.00;99.90
14511;DHT22;7341;50.930;4.038;2023-02-03T00:07:59;10.00;99.90
14511;DHT22;7341;50.930;4.038;2023-02-03T00:10:36;10.00;99.90
14511;DHT22;7341;50.930;4.038;2023-02-03T00:13:07;10.00;99.90
14511;DHT22;7341;50.930;4.038;2023-02-03T00:15:40;10.00;99.90
14511;DHT22;7341;50.930;4.038;2023-02-03T00:18:06;10.00;99.90
14511;DHT22;7341;50.930;4.038;2023-02-03T00:20:46;10.10;99.90
14511;DHT22;7341;50.930;4.038;2023-02-03T00:23:18;10.00;99.90
14511;DHT22;7341;50.930;4.038;2023-02-03T00:26:11;10.00;99.90
14511;DHT22;7341;50.930;4.038;2023-02-03T00:28:44;10.00;99.90
14511;DHT22;7341;50.930;4.038;2023-02-03T00:31:15;10.00;99.90
14511;DHT22;7341;50.930;4.038;2023-02-03T00:33:43;10.00;99.90
14511;DHT22;7341;50.930;4.038;2023-02-03T00:36:10;10.00;99.90
14511;DHT22;7341;50.930;4.038;2023-02-03T00:38:40;10.10;99.90
14511;DHT22;7341;50.930;4.038;2023-02-03T00:41:14;10.10;99.90
14511;DHT22;7341;50.930;4.038;2023-02-03T00:43:48;10.10;99.90
14511;DHT22;7341;50.930;4.038;2023-02-03T00:46:17;10.20;99.90
14511;DHT22;7341;50.930;4.038;2023-02-03T00:48:46;10.10;99.90
14511;DHT22;7341;50.930;4.038;2023-02-03T00:51:23;10.20;99.90
14511;DHT22;7341;50.930;4.038;2023-02-03T00:54:02;10.20;99.90
14511;DHT22;7341;50.930;4.038;2023-02-03T00:56:34;10.20;99.90
14511;DHT22;7341;50.930;4.038;2023-02-03T00:59:03;10.30;99.90
14511;DHT22;7341;50.930;4.038;2023-02-03T01:01:37;10.20;99.90
14511;DHT22;7341;50.930;4.038;2023-02-03T01:04:05;10.20;99.90
14511;DHT22;7341;50.930;4.038;2023-02-03T01:06:35;10.30;99.90
14511;DHT22;7341;50.930;4.038;2023-02-03T01:09:08;10.20;99.90
14511;DHT22;7341;50.930;4.038;2023-02-03T01:11:42;10.30;99.90
14511;DHT22;7341;50.930;4.038;2023-02-03T01:14:10;10.30;99.90
14511;DHT22;7341;50.930;4.038;2023-02-03T01:16:40;10.30;99.90
14511;DHT22;7341;50.930;4.038;2023-02-03T01:19:13;10.40;99.90
14511;DHT22;7341;50.930;4.038;2023-02-03T01:21:44;10.30;99.90
14511;DHT22;7341;50.930;4.038;2023-02-03T01:24:11;10.10;99.90
14511;DHT22;7341;50.930;4.038;2023-02-03T01:26:44;10.10;99.90
14511;DHT22;7341;50.930;4.038;2023-02-03T01:29:14;10.20;99.90
14511;DHT22;7341;50.930;4.038;2023-02-03T01:31:42;10.10;99.90
14511;DHT22;7341;50.930;4.038;2023-02-03T01:34:15;10.10;99.90
14511;DHT22;7341;50.930;4.038;2023-02-03T01:36:43;10.10;99.90
14511;DHT22;7341;50.930;4.038;2023-02-03T01:39:14;10.20;99.90
14511;DHT22;7341;50.930;4.038;2023-02-03T01:41:48;10.30;99.90
14511;DHT22;7341;50.930;4.038;2023-02-03T01:44:38;10.20;99.90
14511;DHT22;7341;50.930;4.038;2023-02-03T01:47:12;10.20;99.90
14511;DHT22;7341;50.930;4.038;2023-02-03T01:49:43;10.20;99.90
14511;DHT22;7341;50.930;4.038;2023-02-03T01:52:11;10.20;99.90
14511;DHT22;7341;50.930;4.038;2023-02-03T01:54:43;10.20;99.90
14511;DHT22;7341;50.930;4.038;2023-02-03T01:57:20;10.20;99.90
14511;DHT22;7341;50.930;4.038;2023-02-03T01:59:55;10.20;99.90
14511;DHT22;7341;50.930;4.038;2023-02-03T02:02:23;10.20;99.90
14511;DHT22;7341;50.930;4.038;2023-02-03T02:05:03;10.20;99.90
14511;DHT22;7341;50.930;4.038;2023-02-03T02:07:35;10.10;99.90
14511;DHT22;7341;50.930;4.038;2023-02-03T02:10:07;10.20;99.90
14511;DHT22;7341;50.930;4.038;2023-02-03T02:12:38;10.20;99.90
14511;DHT22;7341;50.930;4.038;2023-02-03T02:15:05;10.20;99.90
14511;DHT22;7341;50.930;4.038;2023-02-03T02:17:46;10.10;99.90
14511;DHT22;7341;50.930;4.038;2023-02-03T02:26:38;10.10;99.90
14511;DHT22;7341;50.930;4.038;2023-02-03T02:29:31;10.10;99.90
14511;DHT22;7341;50.930;4.038;2023-02-03T02:32:25;10.20;99.90
14511;DHT22;7341;50.930;4.038;2023-02-03T02:35:03;10.20;99.90
14511;DHT22;7341;50.930;4.038;2023-02-03T02:37:42;10.20;99.90
14511;DHT22;7341;50.930;4.038;2023-02-03T02:40:21;10.20;99.90
14511;DHT22;7341;50.930;4.038;2023-02-03T02:43:07;10.20;99.90
14511;DHT22;7341;50.930;4.038;2023-02-03T02:45:47;10.20;99.90
14511;DHT22;7341;50.930;4.038;2023-02-03T02:48:21;10.10;99.90
14511;DHT22;7341;50.930;4.038;2023-02-03T02:51:16;10.10;99.90
14511;DHT22;7341;50.930;4.038;2023-02-03T02:53:54;10.10;99.90
14511;DHT22;7341;50.930;4.038;2023-02-03T02:56:31;10.10;99.90
14511;DHT22;7341;50.930;4.038;2023-02-03T02:59:01;10.10;99.90
14511;DHT22;7341;50.930;4.038;2023-02-03T03:01:31;10.10;99.90
14511;DHT22;7341;50.930;4.038;2023-02-03T03:04:04;10.10;99.90
14511;DHT22;7341;50.930;4.038;2023-02-03T03:06:42;10.10;99.90
14511;DHT22;7341;50.930;4.038;2023-02-03T03:09:17;10.10;99.90
14511;DHT22;7341;50.930;4.038;2023-02-03T03:11:49;10.10;99.90
14511;DHT22;7341;50.930;4.038;2023-02-03T03:14:22;10.20;99.90
14511;DHT22;7341;50.930;4.038;2023-02-03T03:16:58;10.20;99.90
14511;DHT22;7341;50.930;4.038;2023-02-03T03:19:36;10.20;99.90
14511;DHT22;7341;50.930;4.038;2023-02-03T03:22:08;10.10;99.90
14511;DHT22;7341;50.930;4.038;2023-02-03T03:24:40;10.10;99.90
14511;DHT22;7341;50.930;4.038;2023-02-03T03:27:19;10.20;99.90
14511;DHT22;7341;50.930;4.038;2023-02-03T03:29:53;10.20;99.90
14511;DHT22;7341;50.930;4.038;2023-02-03T03:32:30;10.10;99.90
14511;DHT22;7341;50.930;4.038;2023-02-03T03:35:03;10.10;99.90
14511;DHT22;7341;50.930;4.038;2023-02-03T03:37:46;10.00;99.90
14511;DHT22;7341;50.930;4.038;2023-02-03T03:40:20;10.20;99.90
14511;DHT22;7341;50.930;4.038;2023-02-03T03:42:51;10.10;99.90
14511;DHT22;7341;50.930;4.038;2023-02-03T03:45:23;10.10;99.90
14511;DHT22;7341;50.930;4.038;2023-02-03T03:47:59;10.10;99.90
14511;DHT22;7341;50.930;4.038;2023-02-03T03:50:30;10.00;99.90
14511;DHT22;7341;50.930;4.038;2023-02-03T03:53:03;10.10;99.90
14511;DHT22;7341;50.930;4.038;2023-02-03T03:55:37;10.20;99.90
14511;DHT22;7341;50.930;4.038;2023-02-03T03:58:10;10.20;99.90
14511;DHT22;7341;50.930;4.038;2023-02-03T04:00:39;10.10;99.90
14511;DHT22;7341;50.930;4.038;2023-02-03T04:03:13;10.10;99.90
14511;DHT22;7341;50.930;4.038;2023-02-03T04:05:45;10.10;99.90
14511;DHT22;7341;50.930;4.038;2023-02-03T04:08:14;10.10;99.90
14511;DHT22;7341;50.930;4.038;2023-02-03T04:10:46;10.00;99.90
14511;DHT22;7341;50.930;4.038;2023-02-03T04:13:13;10.10;99.90
14511;DHT22;7341;50.930;4.038;2023-02-03T04:15:41;10.00;99.90
14511;DHT22;7341;50.930;4.038;2023-02-03T04:18:15;10.10;99.90
14511;DHT22;7341;50.930;4.038;2023-02-03T04:20:49;10.10;99.90
14511;DHT22;7341;50.930;4.038;2023-02-03T04:23:22;10.10;99.90
14511;DHT22;7341;50.930;4.038;2023-02-03T04:25:49;10.10;99.90
14511;DHT22;7341;50.930;4.038;2023-02-03T04:28:19;10.10;99.90
14511;DHT22;7341;50.930;4.038;2023-02-03T04:30:51;10.00;99.90
14511;DHT22;7341;50.930;4.038;2023-02-03T04:33:19;10.00;99.90
14511;DHT22;7341;50.930;4.038;2023-02-03T04:35:50;10.00;99.90
14511;DHT22;7341;50.930;4.038;2023-02-03T04:38:17;10.00;99.90
14511;DHT22;7341;50.930;4.038;2023-02-03T04:40:45;10.00;99.90
14511;DHT22;7341;50.930;4.038;2023-02-03T04:43:14;10.10;99.90
14511;DHT22;7341;50.930;4.038;2023-02-03T04:45:42;10.00;99.90
14511;DHT22;7341;50.930;4.038;2023-02-03T04:48:17;10.10;99.90
14511;DHT22;7341;50.930;4.038;2023-02-03T04:50:44;10.00;99.90
14511;DHT22;7341;50.930;4.038;2023-02-03T04:53:14;10.00;99.90
14511;DHT22;7341;50.930;4.038;2023-02-03T04:55:46;10.00;99.90
14511;DHT22;7341;50.930;4.038;2023-02-03T04:58:15;10.10;99.90
14511;DHT22;7341;50.930;4.038;2023-02-03T05:00:42;10.10;99.90
14511;DHT22;7341;50.930;4.038;2023-02-03T05:03:10;10.10;99.90
14511;DHT22;7341;50.930;4.038;2023-02-03T05:05:39;10.10;99.90
14511;DHT22;7341;50.930;4.038;2023-02-03T05:08:07;10.10;99.90
14511;DHT22;7341;50.930;4.038;2023-02-03T05:10:38;10.10;99.90
14511;DHT22;7341;50.930;4.038;2023-02-03T05:13:05;10.10;99.90
14511;DHT22;7341;50.930;4.038;2023-02-03T05:15:32;10.10;99.90
14511;DHT22;7341;50.930;4.038;2023-02-03T05:18:05;10.10;99.90
14511;DHT22;7341;50.930;4.038;2023-02-03T05:20:38;10.10;99.90
14511;DHT22;7341;50.930;4.038;2023-02-03T05:23:07;10.10;99.90
14511;DHT22;7341;50.930;4.038;2023-02-03T05:25:34;10.10;99.90
14511;DHT22;7341;50.930;4.038;2023-02-03T05:28:03;10.10;99.90
14511;DHT22;7341;50.930;4.038;2023-02-03T05:30:30;10.10;99.90
14511;DHT22;7341;50.930;4.038;2023-02-03T05:32:57;10.10;99.90
14511;DHT22;7341;50.930;4.038;2023-02-03T05:35:27;10.10;99.90
14511;DHT22;7341;50.930;4.038;2023-02-03T05:37:55;10.10;99.90
14511;DHT22;7341;50.930;4.038;2023-02-03T05:40:24;10.00;99.90
14511;DHT22;7341;50.930;4.038;2023-02-03T05:43:11;10.00;99.90
14511;DHT22;7341;50.930;4.038;2023-02-03T05:45:38;10.10;99.90
14511;DHT22;7341;50.930;4.038;2023-02-03T05:48:05;10.10;99.90
14511;DHT22;7341;50.930;4.038;2023-02-03T05:50:35;10.00;99.90
14511;DHT22;7341;50.930;4.038;2023-02-03T05:53:04;10.00;99.90
14511;DHT22;7341;50.930;4.038;2023-02-03T05:55:32;10.10;99.90
14511;DHT22;7341;50.930;4.038;2023-02-03T05:58:02;10.20;99.90
14511;DHT22;7341;50.930;4.038;2023-02-03T06:00:32;10.10;99.90
14511;DHT22;7341;50.930;4.038;2023-02-03T06:03:02;10.20;99.90
14511;DHT22;7341;50.930;4.038;2023-02-03T06:05:32;10.20;99.90
14511;DHT22;7341;50.930;4.038;2023-02-03T06:08:01;10.20;99.90
14511;DHT22;7341;50.930;4.038;2023-02-03T06:10:28;10.30;99.90
14511;DHT22;7341;50.930;4.038;2023-02-03T06:12:58;10.30;99.90
14511;DHT22;7341;50.930;4.038;2023-02-03T06:15:28;10.20;99.90
14511;DHT22;7341;50.930;4.038;2023-02-03T06:17:57;10.20;99.90
14511;DHT22;7341;50.930;4.038;2023-02-03T06:20:25;10.20;99.90
14511;DHT22;7341;50.930;4.038;2023-02-03T06:22:56;10.10;99.90
14511;DHT22;7341;50.930;4.038;2023-02-03T06:25:25;10.20;99.90
14511;DHT22;7341;50.930;4.038;2023-02-03T06:27:55;10.10;99.90
14511;DHT22;7341;50.930;4.038;2023-02-03T06:30:23;10.10;99.90
14511;DHT22;7341;50.930;4.038;2023-02-03T06:32:50;10.00;99.90
14511;DHT22;7341;50.930;4.038;2023-02-03T06:35:24;10.00;99.90
14511;DHT22;7341;50.930;4.038;2023-02-03T06:37:51;10.00;99.90
14511;DHT22;7341;50.930;4.038;2023-02-03T06:40:21;10.10;99.90
14511;DHT22;7341;50.930;4.038;2023-02-03T06:42:49;10.10;99.90
14511;DHT22;7341;50.930;4.038;2023-02-03T06:45:17;10.20;99.90
14511;DHT22;7341;50.930;4.038;2023-02-03T06:47:45;10.10;99.90
14511;DHT22;7341;50.930;4.038;2023-02-03T06:50:14;10.10;99.90
14511;DHT22;7341;50.930;4.038;2023-02-03T06:52:43;10.10;99.90
14511;DHT22;7341;50.930;4.038;2023-02-03T06:55:10;10.10;99.90
14511;DHT22;7341;50.930;4.038;2023-02-03T06:57:42;10.10;99.90
14511;DHT22;7341;50.930;4.038;2023-02-03T07:00:17;10.10;99.90
14511;DHT22;7341;50.930;4.038;2023-02-03T07:02:52;10.10;99.90
14511;DHT22;7341;50.930;4.038;2023-02-03T07:05:20;10.10;99.90
14511;DHT22;7341;50.930;4.038;2023-02-03T07:07:52;10.20;99.90
14511;DHT22;7341;50.930;4.038;2023-02-03T07:10:19;10.30;99.90
14511;DHT22;7341;50.930;4.038;2023-02-03T07:12:53;10.20;99.90
14511;DHT22;7341;50.930;4.038;2023-02-03T07:15:20;10.20;99.90
14511;DHT22;7341;50.930;4.038;2023-02-03T07:17:56;10.20;99.90
14511;DHT22;7341;50.930;4.038;2023-02-03T07:20:25;10.20;99.90
14511;DHT22;7341;50.930;4.038;2023-02-03T07:22:56;10.20;99.90
14511;DHT22;7341;50.930;4.038;2023-02-03T07:25:26;10.10;99.90
14511;DHT22;7341;50.930;4.038;2023-02-03T07:27:54;10.10;99.90
14511;DHT22;7341;50.930;4.038;2023-02-03T07:30:22;10.00;99.90
14511;DHT22;7341;50.930;4.038;2023-02-03T07:32:51;10.10;99.90
14511;DHT22;7341;50.930;4.038;2023-02-03T07:35:20;10.10;99.90
14511;DHT22;7341;50.930;4.038;2023-02-03T07:37:47;10.10;99.90
14511;DHT22;7341;50.930;4.038;2023-02-03T07:40:19;10.20;99.90
14511;DHT22;7341;50.930;4.038;2023-02-03T07:42:48;10.20;99.90
14511;DHT22;7341;50.930;4.038;2023-02-03T07:45:21;10.30;99.90
14511;DHT22;7341;50.930;4.038;2023-02-03T07:47:50;10.20;99.90
14511;DHT22;7341;50.930;4.038;2023-02-03T07:50:17;10.30;99.90
14511;DHT22;7341;50.930;4.038;2023-02-03T07:52:44;10.20;99.90
14511;DHT22;7341;50.930;4.038;2023-02-03T07:55:10;10.30;99.90
14511;DHT22;7341;50.930;4.038;2023-02-03T07:57:39;10.30;99.90
14511;DHT22;7341;50.930;4.038;2023-02-03T08:00:09;10.20;99.90
14511;DHT22;7341;50.930;4.038;2023-02-03T08:02:36;10.10;99.90
14511;DHT22;7341;50.930;4.038;2023-02-03T08:05:03;10.10;99.90
14511;DHT22;7341;50.930;4.038;2023-02-03T08:07:31;10.20;99.90
14511;DHT22;7341;50.930;4.038;2023-02-03T08:09:58;10.20;99.90
14511;DHT22;7341;50.930;4.038;2023-02-03T08:12:25;10.20;99.90
14511;DHT22;7341;50.930;4.038;2023-02-03T08:14:53;10.20;99.90
14511;DHT22;7341;50.930;4.038;2023-02-03T08:17:20;10.20;99.90
14511;DHT22;7341;50.930;4.038;2023-02-03T08:19:47;10.10;99.90
14511;DHT22;7341;50.930;4.038;2023-02-03T08:22:14;10.20;99.90
14511;DHT22;7341;50.930;4.038;2023-02-03T08:24:41;10.20;99.90
14511;DHT22;7341;50.930;4.038;2023-02-03T08:27:10;10.30;99.90
14511;DHT22;7341;50.930;4.038;2023-02-03T08:29:37;10.20;99.90
14511;DHT22;7341;50.930;4.038;2023-02-03T08:32:08;10.20;99.90
14511;DHT22;7341;50.930;4.038;2023-02-03T08:34:35;10.30;99.90
14511;DHT22;7341;50.930;4.038;2023-02-03T08:37:02;10.20;99.90
14511;DHT22;7341;50.930;4.038;2023-02-03T08:39:30;10.20;99.90
14511;DHT22;7341;50.930;4.038;2023-02-03T08:41:57;10.30;99.90
14511;DHT22;7341;50.930;4.038;2023-02-03T08:44:24;10.30;99.90
14511;DHT22;7341;50.930;4.038;2023-02-03T08:46:52;10.40;99.90
14511;DHT22;7341;50.930;4.038;2023-02-03T08:49:20;10.40;99.90
14511;DHT22;7341;50.930;4.038;2023-02-03T08:51:47;10.40;99.90
14511;DHT22;7341;50.930;4.038;2023-02-03T08:54:14;10.40;99.90
14511;DHT22;7341;50.930;4.038;2023-02-03T08:56:41;10.50;99.90
14511;DHT22;7341;50.930;4.038;2023-02-03T08:59:08;10.50;99.90
14511;DHT22;7341;50.930;4.038;2023-02-03T09:01:36;10.50;99.90
14511;DHT22;7341;50.930;4.038;2023-02-03T09:04:05;10.60;99.90
14511;DHT22;7341;50.930;4.038;2023-02-03T09:06:34;10.60;99.90
14511;DHT22;7341;50.930;4.038;2023-02-03T09:09:03;10.60;99.90
14511;DHT22;7341;50.930;4.038;2023-02-03T09:11:29;10.60;99.90
14511;DHT22;7341;50.930;4.038;2023-02-03T09:13:57;10.60;99.90
14511;DHT22;7341;50.930;4.038;2023-02-03T09:16:25;10.60;99.90
14511;DHT22;7341;50.930;4.038;2023-02-03T09:18:52;10.60;99.90
14511;DHT22;7341;50.930;4.038;2023-02-03T09:21:22;10.50;99.90
14511;DHT22;7341;50.930;4.038;2023-02-03T09:23:50;10.60;99.90
14511;DHT22;7341;50.930;4.038;2023-02-03T09:26:18;10.60;99.90
14511;DHT22;7341;50.930;4.038;2023-02-03T09:28:48;10.70;99.90
14511;DHT22;7341;50.930;4.038;2023-02-03T09:31:16;10.70;99.90
14511;DHT22;7341;50.930;4.038;2023-02-03T09:33:45;10.80;99.90
14511;DHT22;7341;50.930;4.038;2023-02-03T09:36:18;10.90;99.90
14511;DHT22;7341;50.930;4.038;2023-02-03T09:38:46;10.90;99.90
14511;DHT22;7341;50.930;4.038;2023-02-03T09:41:27;10.90;99.90
14511;DHT22;7341;50.930;4.038;2023-02-03T09:44:05;10.90;99.90
14511;DHT22;7341;50.930;4.038;2023-02-03T09:46:38;10.90;99.90
14511;DHT22;7341;50.930;4.038;2023-02-03T09:49:13;10.90;99.90
14511;DHT22;7341;50.930;4.038;2023-02-03T09:51:44;10.90;99.90
14511;DHT22;7341;50.930;4.038;2023-02-03T09:54:19;10.90;99.90
14511;DHT22;7341;50.930;4.038;2023-02-03T09:56:49;10.90;99.90
14511;DHT22;7341;50.930;4.038;2023-02-03T09:59:21;11.00;99.90
14511;DHT22;7341;50.930;4.038;2023-02-03T10:01:56;11.00;99.90
14511;DHT22;7341;50.930;4.038;2023-02-03T10:04:29;11.10;99.90
14511;DHT22;7341;50.930;4.038;2023-02-03T10:07:05;11.10;99.90
14511;DHT22;7341;50.930;4.038;2023-02-03T10:09:45;11.20;99.90
14511;DHT22;7341;50.930;4.038;2023-02-03T10:15:42;11.10;99.90
14511;DHT22;7341;50.930;4.038;2023-02-03T10:18:17;11.30;99.90
14511;DHT22;7341;50.930;4.038;2023-02-03T10:20:47;11.30;99.90
14511;DHT22;7341;50.930;4.038;2023-02-03T10:23:19;11.20;99.90
14511;DHT22;7341;50.930;4.038;2023-02-03T10:25:50;11.20;99.90
14511;DHT22;7341;50.930;4.038;2023-02-03T10:28:21;11.30;99.90
14511;DHT22;7341;50.930;4.038;2023-02-03T10:30:55;11.30;99.90
14511;DHT22;7341;50.930;4.038;2023-02-03T10:33:24;11.40;99.90
14511;DHT22;7341;50.930;4.038;2023-02-03T10:35:54;11.40;99.90
14511;DHT22;7341;50.930;4.038;2023-02-03T10:38:30;11.50;99.90
14511;DHT22;7341;50.930;4.038;2023-02-03T10:41:03;11.40;99.90
14511;DHT22;7341;50.930;4.038;2023-02-03T10:43:31;11.40;99.90
14511;DHT22;7341;50.930;4.038;2023-02-03T10:46:19;11.30;99.90
14511;DHT22;7341;50.930;4.038;2023-02-03T10:48:46;11.20;99.90
14511;DHT22;7341;50.930;4.038;2023-02-03T10:51:18;11.40;99.90
14511;DHT22;7341;50.930;4.038;2023-02-03T10:53:45;11.40;99.90
14511;DHT22;7341;50.930;4.038;2023-02-03T10:56:14;11.70;99.90
14511;DHT22;7341;50.930;4.038;2023-02-03T10:58:47;11.60;99.90
14511;DHT22;7341;50.930;4.038;2023-02-03T11:01:18;11.40;99.90
14511;DHT22;7341;50.930;4.038;2023-02-03T11:03:55;11.40;99.90
14511;DHT22;7341;50.930;4.038;2023-02-03T11:06:23;11.50;99.90
14511;DHT22;7341;50.930;4.038;2023-02-03T11:08:50;11.50;99.90
14511;DHT22;7341;50.930;4.038;2023-02-03T11:11:23;11.40;99.90
14511;DHT22;7341;50.930;4.038;2023-02-03T11:14:10;11.40;99.90
14511;DHT22;7341;50.930;4.038;2023-02-03T11:16:42;11.30;99.90
14511;DHT22;7341;50.930;4.038;2023-02-03T11:19:15;11.20;99.90
14511;DHT22;7341;50.930;4.038;2023-02-03T11:21:45;11.30;99.90
14511;DHT22;7341;50.930;4.038;2023-02-03T11:24:18;11.20;99.90
14511;DHT22;7341;50.930;4.038;2023-02-03T11:26:49;11.30;99.90
14511;DHT22;7341;50.930;4.038;2023-02-03T11:29:20;11.30;99.90
14511;DHT22;7341;50.930;4.038;2023-02-03T11:31:51;11.20;99.90
14511;DHT22;7341;50.930;4.038;2023-02-03T11:34:22;11.30;99.90
14511;DHT22;7341;50.930;4.038;2023-02-03T11:36:51;11.20;99.90
14511;DHT22;7341;50.930;4.038;2023-02-03T11:39:20;11.30;99.90
14511;DHT22;7341;50.930;4.038;2023-02-03T11:41:49;11.10;99.90
14511;DHT22;7341;50.930;4.038;2023-02-03T11:44:18;11.10;99.90
14511;DHT22;7341;50.930;4.038;2023-02-03T11:46:49;11.10;99.90
14511;DHT22;7341;50.930;4.038;2023-02-03T11:49:48;11.10;99.90
14511;DHT22;7341;50.930;4.038;2023-02-03T11:55:26;11.20;99.90
14511;DHT22;7341;50.930;4.038;2023-02-03T11:58:09;11.30;99.90
14511;DHT22;7341;50.930;4.038;2023-02-03T12:00:43;11.30;99.90
14511;DHT22;7341;50.930;4.038;2023-02-03T12:03:43;11.30;99.90
14511;DHT22;7341;50.930;4.038;2023-02-03T12:06:30;11.30;99.90
14511;DHT22;7341;50.930;4.038;2023-02-03T12:09:20;11.50;99.90
14511;DHT22;7341;50.930;4.038;2023-02-03T12:12:00;11.40;99.90
14511;DHT22;7341;50.930;4.038;2023-02-03T12:14:45;11.40;99.90
14511;DHT22;7341;50.930;4.038;2023-02-03T12:20:25;11.30;99.90
14511;DHT22;7341;50.930;4.038;2023-02-03T12:23:02;11.40;99.90
14511;DHT22;7341;50.930;4.038;2023-02-03T12:25:39;11.50;99.90
14511;DHT22;7341;50.930;4.038;2023-02-03T12:28:20;11.60;99.90
14511;DHT22;7341;50.930;4.038;2023-02-03T12:30:52;11.70;99.90
14511;DHT22;7341;50.930;4.038;2023-02-03T12:33:25;11.70;99.90
14511;DHT22;7341;50.930;4.038;2023-02-03T12:36:01;11.60;99.90
14511;DHT22;7341;50.930;4.038;2023-02-03T12:38:35;11.60;99.90
14511;DHT22;7341;50.930;4.038;2023-02-03T12:41:07;11.60;99.90
14511;DHT22;7341;50.930;4.038;2023-02-03T12:43:39;11.50;99.90
14511;DHT22;7341;50.930;4.038;2023-02-03T12:46:13;11.60;99.90
14511;DHT22;7341;50.930;4.038;2023-02-03T12:48:46;11.60;99.90
14511;DHT22;7341;50.930;4.038;2023-02-03T12:51:22;11.70;99.90
14511;DHT22;7341;50.930;4.038;2023-02-03T12:53:53;11.70;99.90
14511;DHT22;7341;50.930;4.038;2023-02-03T12:56:25;11.70;99.90
14511;DHT22;7341;50.930;4.038;2023-02-03T12:58:56;11.70;99.90
14511;DHT22;7341;50.930;4.038;2023-02-03T13:01:27;11.80;99.90
14511;DHT22;7341;50.930;4.038;2023-02-03T13:04:00;11.80;99.90
14511;DHT22;7341;50.930;4.038;2023-02-03T13:06:37;11.80;99.90
14511;DHT22;7341;50.930;4.038;2023-02-03T13:09:19;11.80;99.90
14511;DHT22;7341;50.930;4.038;2023-02-03T13:11:53;11.80;99.90
14511;DHT22;7341;50.930;4.038;2023-02-03T13:14:26;11.80;99.90
14511;DHT22;7341;50.930;4.038;2023-02-03T13:16:57;11.80;99.90
14511;DHT22;7341;50.930;4.038;2023-02-03T13:19:28;11.80;99.90
14511;DHT22;7341;50.930;4.038;2023-02-03T13:21:57;11.80;99.90
14511;DHT22;7341;50.930;4.038;2023-02-03T13:24:25;11.80;99.90
14511;DHT22;7341;50.930;4.038;2023-02-03T13:27:25;11.80;99.90
14511;DHT22;7341;50.930;4.038;2023-02-03T13:33:34;11.90;99.90
14511;DHT22;7341;50.930;4.038;2023-02-03T13:36:15;11.80;99.90
14511;DHT22;7341;50.930;4.038;2023-02-03T13:39:06;11.90;99.90
14511;DHT22;7341;50.930;4.038;2023-02-03T13:41:41;11.80;99.90
14511;DHT22;7341;50.930;4.038;2023-02-03T13:44:14;11.90;99.90
14511;DHT22;7341;50.930;4.038;2023-02-03T13:46:45;12.00;99.90
14511;DHT22;7341;50.930;4.038;2023-02-03T13:49:20;12.00;99.90
14511;DHT22;7341;50.930;4.038;2023-02-03T13:51:48;12.10;99.90
14511;DHT22;7341;50.930;4.038;2023-02-03T13:54:22;12.00;99.90
14511;DHT22;7341;50.930;4.038;2023-02-03T13:56:57;12.00;99.90
14511;DHT22;7341;50.930;4.038;2023-02-03T13:59:29;12.00;99.90
14511;DHT22;7341;50.930;4.038;2023-02-03T14:04:59;12.20;99.90
14511;DHT22;7341;50.930;4.038;2023-02-03T14:07:29;12.10;99.90
14511;DHT22;7341;50.930;4.038;2023-02-03T14:10:23;12.10;99.90
14511;DHT22;7341;50.930;4.038;2023-02-03T14:12:59;12.00;99.90
14511;DHT22;7341;50.930;4.038;2023-02-03T14:15:32;12.10;99.90
14511;DHT22;7341;50.930;4.038;2023-02-03T14:21:08;12.00;99.90
14511;DHT22;7341;50.930;4.038;2023-02-03T14:23:43;12.00;99.90
14511;DHT22;7341;50.930;4.038;2023-02-03T14:26:19;12.00;99.90
14511;DHT22;7341;50.930;4.038;2023-02-03T14:28:48;11.90;99.90
14511;DHT22;7341;50.930;4.038;2023-02-03T14:31:19;11.90;99.90
14511;DHT22;7341;50.930;4.038;2023-02-03T14:34:06;12.00;99.90
14511;DHT22;7341;50.930;4.038;2023-02-03T14:36:43;12.00;99.90
14511;DHT22;7341;50.930;4.038;2023-02-03T14:42:52;11.90;99.90
14511;DHT22;7341;50.930;4.038;2023-02-03T14:45:34;12.00;99.90
14511;DHT22;7341;50.930;4.038;2023-02-03T14:48:17;11.90;99.90
14511;DHT22;7341;50.930;4.038;2023-02-03T14:50:58;11.90;99.90
14511;DHT22;7341;50.930;4.038;2023-02-03T14:53:56;11.90;99.90
14511;DHT22;7341;50.930;4.038;2023-02-03T14:56:34;11.90;99.90
14511;DHT22;7341;50.930;4.038;2023-02-03T14:59:29;11.90;99.90
14511;DHT22;7341;50.930;4.038;2023-02-03T15:02:11;11.90;99.90
14511;DHT22;7341;50.930;4.038;2023-02-03T15:04:39;11.90;99.90
14511;DHT22;7341;50.930;4.038;2023-02-03T15:07:07;12.00;99.90
14511;DHT22;7341;50.930;4.038;2023-02-03T15:09:37;12.10;99.90
14511;DHT22;7341;50.930;4.038;2023-02-03T15:12:15;12.10;99.90
14511;DHT22;7341;50.930;4.038;2023-02-03T15:14:46;12.00;99.90
14511;DHT22;7341;50.930;4.038;2023-02-03T15:17:21;12.00;99.90
14511;DHT22;7341;50.930;4.038;2023-02-03T15:19:52;11.90;99.90
14511;DHT22;7341;50.930;4.038;2023-02-03T15:22:21;11.90;99.90
14511;DHT22;7341;50.930;4.038;2023-02-03T15:25:14;11.90;99.90
14511;DHT22;7341;50.930;4.038;2023-02-03T15:28:09;12.00;99.90
14511;DHT22;7341;50.930;4.038;2023-02-03T15:30:39;11.90;99.90
14511;DHT22;7341;50.930;4.038;2023-02-03T15:33:15;11.90;99.90
14511;DHT22;7341;50.930;4.038;2023-02-03T15:35:56;12.00;99.90
14511;DHT22;7341;50.930;4.038;2023-02-03T15:38:53;11.90;99.90
14511;DHT22;7341;50.930;4.038;2023-02-03T15:41:33;11.90;99.90
14511;DHT22;7341;50.930;4.038;2023-02-03T15:44:11;12.00;99.90
14511;DHT22;7341;50.930;4.038;2023-02-03T15:47:03;12.00;99.90
14511;DHT22;7341;50.930;4.038;2023-02-03T15:49:46;11.90;99.90
14511;DHT22;7341;50.930;4.038;2023-02-03T15:52:21;11.90;99.90
14511;DHT22;7341;50.930;4.038;2023-02-03T15:54:59;12.10;99.90
14511;DHT22;7341;50.930;4.038;2023-02-03T15:57:33;12.00;99.90
14511;DHT22;7341;50.930;4.038;2023-02-03T16:00:10;12.10;99.90
14511;DHT22;7341;50.930;4.038;2023-02-03T16:02:44;12.10;99.90
14511;DHT22;7341;50.930;4.038;2023-02-03T16:05:21;12.20;99.90
14511;DHT22;7341;50.930;4.038;2023-02-03T16:07:49;12.00;99.90
14511;DHT22;7341;50.930;4.038;2023-02-03T16:10:28;11.90;99.90
14511;DHT22;7341;50.930;4.038;2023-02-03T16:13:17;11.80;99.90
14511;DHT22;7341;50.930;4.038;2023-02-03T16:15:57;11.90;99.90
14511;DHT22;7341;50.930;4.038;2023-02-03T16:18:26;11.80;99.90
14511;DHT22;7341;50.930;4.038;2023-02-03T16:20:54;11.80;99.90
14511;DHT22;7341;50.930;4.038;2023-02-03T16:23:23;12.00;99.90
14511;DHT22;7341;50.930;4.038;2023-02-03T16:26:03;12.00;99.90
14511;DHT22;7341;50.930;4.038;2023-02-03T16:28:31;11.90;99.90
14511;DHT22;7341;50.930;4.038;2023-02-03T16:31:17;11.90;99.90
14511;DHT22;7341;50.930;4.038;2023-02-03T16:34:11;11.70;99.90
14511;DHT22;7341;50.930;4.038;2023-02-03T16:36:56;11.70;99.90
14511;DHT22;7341;50.930;4.038;2023-02-03T16:39:40;11.70;99.90
14511;DHT22;7341;50.930;4.038;2023-02-03T16:42:25;11.60;99.90
14511;DHT22;7341;50.930;4.038;2023-02-03T16:45:12;11.60;99.90
14511;DHT22;7341;50.930;4.038;2023-02-03T16:47:58;11.60;99.90
14511;DHT22;7341;50.930;4.038;2023-02-03T16:50:45;11.50;99.90